sensor_id;sensor_type;location;lat;lon;timestamp;P1;P2;P0
59758;PMS5003;61150;62.516;17.862;2022-07-22T00:02:15;1;1;
59758;PMS5003;61150;62.516;17.862;2022-07-22T00:04:44;1;1;
59758;PMS5003;61150;62.516;17.862;2022-07-22T00:07:13;1;1;
59758;PMS5003;61150;62.516;17.862;2022-07-22T00:09:41;2;2;
59758;PMS5003;61150;62.516;17.862;2022-07-22T00:12:10;1;1;
59758;PMS5003;61150;62.516;17.862;2022-07-22T00:14:39;1;1;
59758;PMS5003;61150;62.516;17.862;2022-07-22T00:17:08;1;1;
59758;PMS5003;61150;62.516;17.862;2022-07-22T00:19:37;0;0;
59758;PMS5003;61150;62.516;17.862;2022-07-22T00:22:06;2;2;
59758;PMS5003;61150;62.516;17.862;2022-07-22T00:24:34;0;0;
59758;PMS5003;61150;62.516;17.862;2022-07-22T00:27:04;1;1;
59758;PMS5003;61150;62.516;17.862;2022-07-22T00:29:32;1;1;
59758;PMS5003;61150;62.516;17.862;2022-07-22T00:32:01;1;1;
59758;PMS5003;61150;62.516;17.862;2022-07-22T00:34:30;0;0;
59758;PMS5003;61150;62.516;17.862;2022-07-22T00:36:59;1;1;
59758;PMS5003;61150;62.516;17.862;2022-07-22T00:39:27;1;1;
59758;PMS5003;61150;62.516;17.862;2022-07-22T00:41:56;0;0;
59758;PMS5003;61150;62.516;17.862;2022-07-22T00:44:27;0;0;
59758;PMS5003;61150;62.516;17.862;2022-07-22T00:46:55;1;1;
59758;PMS5003;61150;62.516;17.862;2022-07-22T00:49:24;0;0;
59758;PMS5003;61150;62.516;17.862;2022-07-22T00:51:53;0;0;
59758;PMS5003;61150;62.516;17.862;2022-07-22T00:54:22;0;0;
59758;PMS5003;61150;62.516;17.862;2022-07-22T00:56:51;0;0;
59758;PMS5003;61150;62.516;17.862;2022-07-22T00:59:20;1;1;
59758;PMS5003;61150;62.516;17.862;2022-07-22T01:03:01;0;0;
59758;PMS5003;61150;62.516;17.862;2022-07-22T01:05:30;1;0;
59758;PMS5003;61150;62.516;17.862;2022-07-22T01:07:59;0;0;
59758;PMS5003;61150;62.516;17.862;2022-07-22T01:10:33;0;0;
59758;PMS5003;61150;62.516;17.862;2022-07-22T01:13:02;0;0;
59758;PMS5003;61150;62.516;17.862;2022-07-22T01:15:31;1;1;
59758;PMS5003;61150;62.516;17.862;2022-07-22T01:18:00;0;0;
59758;PMS5003;61150;62.516;17.862;2022-07-22T01:20:30;0;0;
59758;PMS5003;61150;62.516;17.862;2022-07-22T01:22:59;0;0;
59758;PMS5003;61150;62.516;17.862;2022-07-22T01:25:29;0;0;
59758;PMS5003;61150;62.516;17.862;2022-07-22T01:27:58;1;1;
59758;PMS5003;61150;62.516;17.862;2022-07-22T01:30:27;0;0;
59758;PMS5003;61150;62.516;17.862;2022-07-22T01:32:56;0;0;
59758;PMS5003;61150;62.516;17.862;2022-07-22T01:35:26;1;1;
59758;PMS5003;61150;62.516;17.862;2022-07-22T01:37:55;1;1;
59758;PMS5003;61150;62.516;17.862;2022-07-22T01:40:24;0;0;
59758;PMS5003;61150;62.516;17.862;2022-07-22T01:42:53;0;0;
59758;PMS5003;61150;62.516;17.862;2022-07-22T01:45:21;1;1;
59758;PMS5003;61150;62.516;17.862;2022-07-22T01:47:50;1;0;
59758;PMS5003;61150;62.516;17.862;2022-07-22T01:50:19;0;0;
59758;PMS5003;61150;62.516;17.862;2022-07-22T01:52:48;0;0;
59758;PMS5003;61150;62.516;17.862;2022-07-22T01:55:17;1;1;
59758;PMS5003;61150;62.516;17.862;2022-07-22T01:57:45;0;0;
59758;PMS5003;61150;62.516;17.862;2022-07-22T02:00:15;0;0;
59758;PMS5003;61150;62.516;17.862;2022-07-22T02:02:45;0;0;
59758;PMS5003;61150;62.516;17.862;2022-07-22T02:05:13;2;2;
59758;PMS5003;61150;62.516;17.862;2022-07-22T02:07:42;2;2;
59758;PMS5003;61150;62.516;17.862;2022-07-22T02:10:13;1;1;
59758;PMS5003;61150;62.516;17.862;2022-07-22T02:12:42;1;1;
59758;PMS5003;61150;62.516;17.862;2022-07-22T02:15:10;0;0;
59758;PMS5003;61150;62.516;17.862;2022-07-22T02:17:39;0;0;
59758;PMS5003;61150;62.516;17.862;2022-07-22T02:20:09;1;1;
59758;PMS5003;61150;62.516;17.862;2022-07-22T02:22:39;0;0;
59758;PMS5003;61150;62.516;17.862;2022-07-22T02:25:07;1;0;
59758;PMS5003;61150;62.516;17.862;2022-07-22T02:27:36;0;0;
59758;PMS5003;61150;62.516;17.862;2022-07-22T02:30:06;1;0;
59758;PMS5003;61150;62.516;17.862;2022-07-22T02:32:37;0;0;
59758;PMS5003;61150;62.516;17.862;2022-07-22T02:35:07;0;0;
59758;PMS5003;61150;62.516;17.862;2022-07-22T02:37:37;0;0;
59758;PMS5003;61150;62.516;17.862;2022-07-22T02:40:06;0;0;
59758;PMS5003;61150;62.516;17.862;2022-07-22T02:42:34;0;0;
59758;PMS5003;61150;62.516;17.862;2022-07-22T02:45:03;1;1;
59758;PMS5003;61150;62.516;17.862;2022-07-22T02:47:32;0;0;
59758;PMS5003;61150;62.516;17.862;2022-07-22T02:50:01;2;1;
59758;PMS5003;61150;62.516;17.862;2022-07-22T02:52:29;0;0;
59758;PMS5003;61150;62.516;17.862;2022-07-22T02:54:58;0;0;
59758;PMS5003;61150;62.516;17.862;2022-07-22T02:57:27;0;0;
59758;PMS5003;61150;62.516;17.862;2022-07-22T02:59:56;0;0;
59758;PMS5003;61150;62.516;17.862;2022-07-22T03:02:24;1;1;
59758;PMS5003;61150;62.516;17.862;2022-07-22T03:04:53;2;2;
59758;PMS5003;61150;62.516;17.862;2022-07-22T03:07:22;1;1;
59758;PMS5003;61150;62.516;17.862;2022-07-22T03:09:51;3;3;
59758;PMS5003;61150;62.516;17.862;2022-07-22T03:12:19;3;3;
59758;PMS5003;61150;62.516;17.862;2022-07-22T03:14:48;5;5;
59758;PMS5003;61150;62.516;17.862;2022-07-22T03:17:18;5;5;
59758;PMS5003;61150;62.516;17.862;2022-07-22T03:19:46;5;5;
59758;PMS5003;61150;62.516;17.862;2022-07-22T03:22:15;4;4;
59758;PMS5003;61150;62.516;17.862;2022-07-22T03:24:44;2;2;
59758;PMS5003;61150;62.516;17.862;2022-07-22T03:27:12;3;3;
59758;PMS5003;61150;62.516;17.862;2022-07-22T03:29:41;2;2;
59758;PMS5003;61150;62.516;17.862;2022-07-22T03:32:10;0;0;
59758;PMS5003;61150;62.516;17.862;2022-07-22T03:34:39;3;3;
59758;PMS5003;61150;62.516;17.862;2022-07-22T03:37:08;5;5;
59758;PMS5003;61150;62.516;17.862;2022-07-22T03:39:36;6;6;
59758;PMS5003;61150;62.516;17.862;2022-07-22T03:42:05;7;7;
59758;PMS5003;61150;62.516;17.862;2022-07-22T03:44:34;5;5;
59758;PMS5003;61150;62.516;17.862;2022-07-22T03:47:03;6;6;
59758;PMS5003;61150;62.516;17.862;2022-07-22T03:49:32;6;6;
59758;PMS5003;61150;62.516;17.862;2022-07-22T03:52:01;8;8;
59758;PMS5003;61150;62.516;17.862;2022-07-22T03:54:29;8;8;
59758;PMS5003;61150;62.516;17.862;2022-07-22T03:56:58;8;8;
59758;PMS5003;61150;62.516;17.862;2022-07-22T03:59:29;11;11;
59758;PMS5003;61150;62.516;17.862;2022-07-22T04:02:51;3;3;
59758;PMS5003;61150;62.516;17.862;2022-07-22T04:05:20;9;8;
59758;PMS5003;61150;62.516;17.862;2022-07-22T04:07:49;8;8;
59758;PMS5003;61150;62.516;17.862;2022-07-22T04:10:18;5;5;
59758;PMS5003;61150;62.516;17.862;2022-07-22T04:12:46;7;7;
59758;PMS5003;61150;62.516;17.862;2022-07-22T04:15:15;5;5;
59758;PMS5003;61150;62.516;17.862;2022-07-22T04:17:44;5;5;
59758;PMS5003;61150;62.516;17.862;2022-07-22T04:20:13;3;3;
59758;PMS5003;61150;62.516;17.862;2022-07-22T04:22:42;2;2;
59758;PMS5003;61150;62.516;17.862;2022-07-22T04:25:10;1;1;
59758;PMS5003;61150;62.516;17.862;2022-07-22T04:27:39;0;0;
59758;PMS5003;61150;62.516;17.862;2022-07-22T04:30:08;0;0;
59758;PMS5003;61150;62.516;17.862;2022-07-22T04:32:37;0;0;
59758;PMS5003;61150;62.516;17.862;2022-07-22T04:35:06;1;1;
59758;PMS5003;61150;62.516;17.862;2022-07-22T04:37:34;0;0;
59758;PMS5003;61150;62.516;17.862;2022-07-22T04:40:03;0;0;
59758;PMS5003;61150;62.516;17.862;2022-07-22T04:42:34;0;0;
59758;PMS5003;61150;62.516;17.862;2022-07-22T04:45:03;0;0;
59758;PMS5003;61150;62.516;17.862;2022-07-22T04:47:31;0;0;
59758;PMS5003;61150;62.516;17.862;2022-07-22T04:50:00;0;0;
59758;PMS5003;61150;62.516;17.862;2022-07-22T04:52:36;1;1;
59758;PMS5003;61150;62.516;17.862;2022-07-22T04:55:05;0;0;
59758;PMS5003;61150;62.516;17.862;2022-07-22T04:57:35;0;0;
59758;PMS5003;61150;62.516;17.862;2022-07-22T05:00:04;0;0;
59758;PMS5003;61150;62.516;17.862;2022-07-22T05:02:34;0;0;
59758;PMS5003;61150;62.516;17.862;2022-07-22T05:05:03;0;0;
59758;PMS5003;61150;62.516;17.862;2022-07-22T05:07:32;0;0;
59758;PMS5003;61150;62.516;17.862;2022-07-22T05:10:06;0;0;
59758;PMS5003;61150;62.516;17.862;2022-07-22T05:12:34;0;0;
59758;PMS5003;61150;62.516;17.862;2022-07-22T05:15:04;0;0;
59758;PMS5003;61150;62.516;17.862;2022-07-22T05:17:32;1;1;
59758;PMS5003;61150;62.516;17.862;2022-07-22T05:20:01;1;1;
59758;PMS5003;61150;62.516;17.862;2022-07-22T05:22:30;0;0;
59758;PMS5003;61150;62.516;17.862;2022-07-22T05:24:59;0;0;
59758;PMS5003;61150;62.516;17.862;2022-07-22T05:27:29;0;0;
59758;PMS5003;61150;62.516;17.862;2022-07-22T05:29:58;0;0;
59758;PMS5003;61150;62.516;17.862;2022-07-22T05:32:28;1;0;
59758;PMS5003;61150;62.516;17.862;2022-07-22T05:34:57;0;0;
59758;PMS5003;61150;62.516;17.862;2022-07-22T05:37:26;1;1;
59758;PMS5003;61150;62.516;17.862;2022-07-22T05:39:55;1;0;
59758;PMS5003;61150;62.516;17.862;2022-07-22T05:42:23;0;0;
59758;PMS5003;61150;62.516;17.862;2022-07-22T05:44:52;0;0;
59758;PMS5003;61150;62.516;17.862;2022-07-22T05:47:21;0;0;
59758;PMS5003;61150;62.516;17.862;2022-07-22T05:49:50;0;0;
59758;PMS5003;61150;62.516;17.862;2022-07-22T05:52:18;0;0;
59758;PMS5003;61150;62.516;17.862;2022-07-22T05:54:47;0;0;
59758;PMS5003;61150;62.516;17.862;2022-07-22T05:57:16;0;0;
59758;PMS5003;61150;62.516;17.862;2022-07-22T05:59:45;0;0;
59758;PMS5003;61150;62.516;17.862;2022-07-22T06:02:13;0;0;
59758;PMS5003;61150;62.516;17.862;2022-07-22T06:04:42;0;0;
59758;PMS5003;61150;62.516;17.862;2022-07-22T06:07:11;0;0;
59758;PMS5003;61150;62.516;17.862;2022-07-22T06:09:40;0;0;
59758;PMS5003;61150;62.516;17.862;2022-07-22T06:12:08;0;0;
59758;PMS5003;61150;62.516;17.862;2022-07-22T06:14:37;1;0;
59758;PMS5003;61150;62.516;17.862;2022-07-22T06:17:06;0;0;
59758;PMS5003;61150;62.516;17.862;2022-07-22T06:19:35;0;0;
59758;PMS5003;61150;62.516;17.862;2022-07-22T06:22:03;0;0;
59758;PMS5003;61150;62.516;17.862;2022-07-22T06:24:32;0;0;
59758;PMS5003;61150;62.516;17.862;2022-07-22T06:27:01;0;0;
59758;PMS5003;61150;62.516;17.862;2022-07-22T06:29:30;0;0;
59758;PMS5003;61150;62.516;17.862;2022-07-22T06:31:59;2;2;
59758;PMS5003;61150;62.516;17.862;2022-07-22T06:34:29;0;0;
59758;PMS5003;61150;62.516;17.862;2022-07-22T06:36:58;2;2;
59758;PMS5003;61150;62.516;17.862;2022-07-22T06:39:28;2;2;
59758;PMS5003;61150;62.516;17.862;2022-07-22T06:41:57;2;2;
59758;PMS5003;61150;62.516;17.862;2022-07-22T06:44:26;3;3;
59758;PMS5003;61150;62.516;17.862;2022-07-22T06:46:54;2;2;
59758;PMS5003;61150;62.516;17.862;2022-07-22T06:49:23;3;3;
59758;PMS5003;61150;62.516;17.862;2022-07-22T06:51:52;3;3;
59758;PMS5003;61150;62.516;17.862;2022-07-22T06:54:21;4;4;
59758;PMS5003;61150;62.516;17.862;2022-07-22T06:56:49;27;26;
59758;PMS5003;61150;62.516;17.862;2022-07-22T06:59:18;34;34;
59758;PMS5003;61150;62.516;17.862;2022-07-22T07:02:57;0;0;
59758;PMS5003;61150;62.516;17.862;2022-07-22T07:05:26;16;16;
59758;PMS5003;61150;62.516;17.862;2022-07-22T07:07:54;6;6;
59758;PMS5003;61150;62.516;17.862;2022-07-22T07:10:23;19;19;
59758;PMS5003;61150;62.516;17.862;2022-07-22T07:12:54;10;9;
59758;PMS5003;61150;62.516;17.862;2022-07-22T07:15:24;9;9;
59758;PMS5003;61150;62.516;17.862;2022-07-22T07:17:55;0;0;
59758;PMS5003;61150;62.516;17.862;2022-07-22T07:20:25;0;0;
59758;PMS5003;61150;62.516;17.862;2022-07-22T07:22:54;0;0;
59758;PMS5003;61150;62.516;17.862;2022-07-22T07:25:22;0;0;
59758;PMS5003;61150;62.516;17.862;2022-07-22T07:27:51;0;0;
59758;PMS5003;61150;62.516;17.862;2022-07-22T07:30:20;0;0;
59758;PMS5003;61150;62.516;17.862;2022-07-22T07:32:48;0;0;
59758;PMS5003;61150;62.516;17.862;2022-07-22T07:35:17;0;0;
59758;PMS5003;61150;62.516;17.862;2022-07-22T07:37:46;0;0;
59758;PMS5003;61150;62.516;17.862;2022-07-22T07:40:14;0;0;
59758;PMS5003;61150;62.516;17.862;2022-07-22T07:42:43;0;0;
59758;PMS5003;61150;62.516;17.862;2022-07-22T07:45:12;0;0;
59758;PMS5003;61150;62.516;17.862;2022-07-22T07:47:41;0;0;
59758;PMS5003;61150;62.516;17.862;2022-07-22T07:50:09;0;0;
59758;PMS5003;61150;62.516;17.862;2022-07-22T07:52:38;0;0;
59758;PMS5003;61150;62.516;17.862;2022-07-22T07:55:08;0;0;
59758;PMS5003;61150;62.516;17.862;2022-07-22T07:57:37;0;0;
59758;PMS5003;61150;62.516;17.862;2022-07-22T08:00:07;0;0;
59758;PMS5003;61150;62.516;17.862;2022-07-22T08:02:38;0;0;
59758;PMS5003;61150;62.516;17.862;2022-07-22T08:05:07;0;0;
59758;PMS5003;61150;62.516;17.862;2022-07-22T08:07:37;0;0;
59758;PMS5003;61150;62.516;17.862;2022-07-22T08:10:08;0;0;
59758;PMS5003;61150;62.516;17.862;2022-07-22T08:12:36;0;0;
59758;PMS5003;61150;62.516;17.862;2022-07-22T08:15:05;0;0;
59758;PMS5003;61150;62.516;17.862;2022-07-22T08:17:36;0;0;
59758;PMS5003;61150;62.516;17.862;2022-07-22T08:20:05;0;0;
59758;PMS5003;61150;62.516;17.862;2022-07-22T08:22:34;1;0;
59758;PMS5003;61150;62.516;17.862;2022-07-22T08:25:04;0;0;
59758;PMS5003;61150;62.516;17.862;2022-07-22T08:27:33;0;0;
59758;PMS5003;61150;62.516;17.862;2022-07-22T08:30:03;0;0;
59758;PMS5003;61150;62.516;17.862;2022-07-22T08:32:33;0;0;
59758;PMS5003;61150;62.516;17.862;2022-07-22T08:35:03;0;0;
59758;PMS5003;61150;62.516;17.862;2022-07-22T08:37:33;0;0;
59758;PMS5003;61150;62.516;17.862;2022-07-22T08:40:03;0;0;
59758;PMS5003;61150;62.516;17.862;2022-07-22T08:42:36;0;0;
59758;PMS5003;61150;62.516;17.862;2022-07-22T08:45:05;0;0;
59758;PMS5003;61150;62.516;17.862;2022-07-22T08:47:35;0;0;
59758;PMS5003;61150;62.516;17.862;2022-07-22T08:50:04;0;0;
59758;PMS5003;61150;62.516;17.862;2022-07-22T08:52:34;0;0;
59758;PMS5003;61150;62.516;17.862;2022-07-22T08:55:03;0;0;
59758;PMS5003;61150;62.516;17.862;2022-07-22T08:57:33;0;0;
59758;PMS5003;61150;62.516;17.862;2022-07-22T09:00:08;0;0;
59758;PMS5003;61150;62.516;17.862;2022-07-22T09:02:38;0;0;
59758;PMS5003;61150;62.516;17.862;2022-07-22T09:05:08;0;0;
59758;PMS5003;61150;62.516;17.862;2022-07-22T09:07:39;0;0;
59758;PMS5003;61150;62.516;17.862;2022-07-22T09:10:10;0;0;
59758;PMS5003;61150;62.516;17.862;2022-07-22T09:12:53;0;0;
59758;PMS5003;61150;62.516;17.862;2022-07-22T09:15:25;0;0;
59758;PMS5003;61150;62.516;17.862;2022-07-22T09:17:56;0;0;
59758;PMS5003;61150;62.516;17.862;2022-07-22T09:20:27;0;0;
59758;PMS5003;61150;62.516;17.862;2022-07-22T09:22:56;0;0;
59758;PMS5003;61150;62.516;17.862;2022-07-22T09:25:26;0;0;
59758;PMS5003;61150;62.516;17.862;2022-07-22T09:27:56;0;0;
59758;PMS5003;61150;62.516;17.862;2022-07-22T09:30:39;0;0;
59758;PMS5003;61150;62.516;17.862;2022-07-22T09:33:14;0;0;
59758;PMS5003;61150;62.516;17.862;2022-07-22T09:35:42;0;0;
59758;PMS5003;61150;62.516;17.862;2022-07-22T09:38:11;0;0;
59758;PMS5003;61150;62.516;17.862;2022-07-22T09:40:42;0;0;
59758;PMS5003;61150;62.516;17.862;2022-07-22T09:43:12;0;0;
59758;PMS5003;61150;62.516;17.862;2022-07-22T09:45:44;0;0;
59758;PMS5003;61150;62.516;17.862;2022-07-22T09:48:15;0;0;
59758;PMS5003;61150;62.516;17.862;2022-07-22T09:50:45;1;0;
59758;PMS5003;61150;62.516;17.862;2022-07-22T09:53:15;0;0;
59758;PMS5003;61150;62.516;17.862;2022-07-22T09:55:45;0;0;
59758;PMS5003;61150;62.516;17.862;2022-07-22T09:58:14;0;0;
59758;PMS5003;61150;62.516;17.862;2022-07-22T10:02:53;0;0;
59758;PMS5003;61150;62.516;17.862;2022-07-22T10:05:24;0;0;
59758;PMS5003;61150;62.516;17.862;2022-07-22T10:07:54;0;0;
59758;PMS5003;61150;62.516;17.862;2022-07-22T10:10:23;0;0;
59758;PMS5003;61150;62.516;17.862;2022-07-22T10:12:53;0;0;
59758;PMS5003;61150;62.516;17.862;2022-07-22T10:15:24;0;0;
59758;PMS5003;61150;62.516;17.862;2022-07-22T10:17:55;0;0;
59758;PMS5003;61150;62.516;17.862;2022-07-22T10:20:27;0;0;
59758;PMS5003;61150;62.516;17.862;2022-07-22T10:22:58;0;0;
59758;PMS5003;61150;62.516;17.862;2022-07-22T10:25:30;0;0;
59758;PMS5003;61150;62.516;17.862;2022-07-22T10:28:01;0;0;
59758;PMS5003;61150;62.516;17.862;2022-07-22T10:30:33;0;0;
59758;PMS5003;61150;62.516;17.862;2022-07-22T10:33:06;0;0;
59758;PMS5003;61150;62.516;17.862;2022-07-22T10:35:37;0;0;
59758;PMS5003;61150;62.516;17.862;2022-07-22T10:38:19;0;0;
59758;PMS5003;61150;62.516;17.862;2022-07-22T10:40:50;0;0;
59758;PMS5003;61150;62.516;17.862;2022-07-22T10:43:23;0;0;
59758;PMS5003;61150;62.516;17.862;2022-07-22T10:45:54;0;0;
59758;PMS5003;61150;62.516;17.862;2022-07-22T10:48:25;0;0;
59758;PMS5003;61150;62.516;17.862;2022-07-22T10:51:13;0;0;
59758;PMS5003;61150;62.516;17.862;2022-07-22T10:53:45;0;0;
59758;PMS5003;61150;62.516;17.862;2022-07-22T10:56:18;0;0;
59758;PMS5003;61150;62.516;17.862;2022-07-22T10:58:51;0;0;
59758;PMS5003;61150;62.516;17.862;2022-07-22T11:01:23;0;0;
59758;PMS5003;61150;62.516;17.862;2022-07-22T11:03:54;0;0;
59758;PMS5003;61150;62.516;17.862;2022-07-22T11:06:24;0;0;
59758;PMS5003;61150;62.516;17.862;2022-07-22T11:08:55;0;0;
59758;PMS5003;61150;62.516;17.862;2022-07-22T11:11:33;0;0;
59758;PMS5003;61150;62.516;17.862;2022-07-22T11:14:22;0;0;
59758;PMS5003;61150;62.516;17.862;2022-07-22T11:16:52;0;0;
59758;PMS5003;61150;62.516;17.862;2022-07-22T11:19:22;1;0;
59758;PMS5003;61150;62.516;17.862;2022-07-22T11:21:53;0;0;
59758;PMS5003;61150;62.516;17.862;2022-07-22T11:24:23;0;0;
59758;PMS5003;61150;62.516;17.862;2022-07-22T11:26:53;0;0;
59758;PMS5003;61150;62.516;17.862;2022-07-22T11:29:24;0;0;
59758;PMS5003;61150;62.516;17.862;2022-07-22T11:31:56;0;0;
59758;PMS5003;61150;62.516;17.862;2022-07-22T11:34:26;0;0;
59758;PMS5003;61150;62.516;17.862;2022-07-22T11:36:56;0;0;
59758;PMS5003;61150;62.516;17.862;2022-07-22T11:39:27;0;0;
59758;PMS5003;61150;62.516;17.862;2022-07-22T11:42:00;0;0;
59758;PMS5003;61150;62.516;17.862;2022-07-22T11:44:32;0;0;
59758;PMS5003;61150;62.516;17.862;2022-07-22T11:47:05;0;0;
59758;PMS5003;61150;62.516;17.862;2022-07-22T11:49:35;0;0;
59758;PMS5003;61150;62.516;17.862;2022-07-22T11:52:06;1;0;
59758;PMS5003;61150;62.516;17.862;2022-07-22T11:54:36;0;0;
59758;PMS5003;61150;62.516;17.862;2022-07-22T11:57:04;0;0;
59758;PMS5003;61150;62.516;17.862;2022-07-22T11:59:35;0;0;
59758;PMS5003;61150;62.516;17.862;2022-07-22T12:02:04;0;0;
59758;PMS5003;61150;62.516;17.862;2022-07-22T12:04:33;0;0;
59758;PMS5003;61150;62.516;17.862;2022-07-22T12:07:03;0;0;
59758;PMS5003;61150;62.516;17.862;2022-07-22T12:09:33;0;0;
59758;PMS5003;61150;62.516;17.862;2022-07-22T12:12:03;0;0;
59758;PMS5003;61150;62.516;17.862;2022-07-22T12:14:33;0;0;
59758;PMS5003;61150;62.516;17.862;2022-07-22T12:17:03;0;0;
59758;PMS5003;61150;62.516;17.862;2022-07-22T12:19:34;0;0;
59758;PMS5003;61150;62.516;17.862;2022-07-22T12:22:05;0;0;
59758;PMS5003;61150;62.516;17.862;2022-07-22T12:24:37;0;0;
59758;PMS5003;61150;62.516;17.862;2022-07-22T12:27:07;0;0;
59758;PMS5003;61150;62.516;17.862;2022-07-22T12:29:45;0;0;
59758;PMS5003;61150;62.516;17.862;2022-07-22T12:32:15;0;0;
59758;PMS5003;61150;62.516;17.862;2022-07-22T12:34:47;0;0;
59758;PMS5003;61150;62.516;17.862;2022-07-22T12:37:24;0;0;
59758;PMS5003;61150;62.516;17.862;2022-07-22T12:39:55;0;0;
59758;PMS5003;61150;62.516;17.862;2022-07-22T12:42:28;0;0;
59758;PMS5003;61150;62.516;17.862;2022-07-22T12:45:01;0;0;
59758;PMS5003;61150;62.516;17.862;2022-07-22T12:47:48;0;0;
59758;PMS5003;61150;62.516;17.862;2022-07-22T12:50:21;0;0;
59758;PMS5003;61150;62.516;17.862;2022-07-22T12:52:53;0;0;
59758;PMS5003;61150;62.516;17.862;2022-07-22T12:55:25;0;0;
59758;PMS5003;61150;62.516;17.862;2022-07-22T12:57:54;0;0;
59758;PMS5003;61150;62.516;17.862;2022-07-22T13:02:54;0;0;
59758;PMS5003;61150;62.516;17.862;2022-07-22T13:05:23;0;0;
59758;PMS5003;61150;62.516;17.862;2022-07-22T13:07:54;0;0;
59758;PMS5003;61150;62.516;17.862;2022-07-22T13:10:23;0;0;
59758;PMS5003;61150;62.516;17.862;2022-07-22T13:12:53;0;0;
59758;PMS5003;61150;62.516;17.862;2022-07-22T13:15:21;1;0;
59758;PMS5003;61150;62.516;17.862;2022-07-22T13:17:50;0;0;
59758;PMS5003;61150;62.516;17.862;2022-07-22T13:20:18;1;1;
59758;PMS5003;61150;62.516;17.862;2022-07-22T13:22:47;0;0;
59758;PMS5003;61150;62.516;17.862;2022-07-22T13:25:16;0;0;
59758;PMS5003;61150;62.516;17.862;2022-07-22T13:27:44;0;0;
59758;PMS5003;61150;62.516;17.862;2022-07-22T13:30:13;0;0;
59758;PMS5003;61150;62.516;17.862;2022-07-22T13:32:42;0;0;
59758;PMS5003;61150;62.516;17.862;2022-07-22T13:35:10;0;0;
59758;PMS5003;61150;62.516;17.862;2022-07-22T13:37:39;0;0;
59758;PMS5003;61150;62.516;17.862;2022-07-22T13:40:08;0;0;
59758;PMS5003;61150;62.516;17.862;2022-07-22T13:42:36;0;0;
59758;PMS5003;61150;62.516;17.862;2022-07-22T13:45:05;0;0;
59758;PMS5003;61150;62.516;17.862;2022-07-22T13:47:35;0;0;
59758;PMS5003;61150;62.516;17.862;2022-07-22T13:50:04;0;0;
59758;PMS5003;61150;62.516;17.862;2022-07-22T13:52:32;0;0;
59758;PMS5003;61150;62.516;17.862;2022-07-22T13:55:01;0;0;
59758;PMS5003;61150;62.516;17.862;2022-07-22T13:57:30;1;0;
59758;PMS5003;61150;62.516;17.862;2022-07-22T13:59:59;0;0;
59758;PMS5003;61150;62.516;17.862;2022-07-22T14:02:29;0;0;
59758;PMS5003;61150;62.516;17.862;2022-07-22T14:04:58;0;0;
59758;PMS5003;61150;62.516;17.862;2022-07-22T14:07:28;0;0;
59758;PMS5003;61150;62.516;17.862;2022-07-22T14:09:56;0;0;
59758;PMS5003;61150;62.516;17.862;2022-07-22T14:12:25;0;0;
59758;PMS5003;61150;62.516;17.862;2022-07-22T14:14:54;0;0;
59758;PMS5003;61150;62.516;17.862;2022-07-22T14:17:22;0;0;
59758;PMS5003;61150;62.516;17.862;2022-07-22T14:19:51;0;0;
59758;PMS5003;61150;62.516;17.862;2022-07-22T14:22:20;0;0;
59758;PMS5003;61150;62.516;17.862;2022-07-22T14:24:48;0;0;
59758;PMS5003;61150;62.516;17.862;2022-07-22T14:27:17;0;0;
59758;PMS5003;61150;62.516;17.862;2022-07-22T14:29:45;0;0;
59758;PMS5003;61150;62.516;17.862;2022-07-22T14:32:14;0;0;
59758;PMS5003;61150;62.516;17.862;2022-07-22T14:34:43;0;0;
59758;PMS5003;61150;62.516;17.862;2022-07-22T14:37:11;0;0;
59758;PMS5003;61150;62.516;17.862;2022-07-22T14:39:40;0;0;
59758;PMS5003;61150;62.516;17.862;2022-07-22T14:42:08;0;0;
59758;PMS5003;61150;62.516;17.862;2022-07-22T14:44:37;0;0;
59758;PMS5003;61150;62.516;17.862;2022-07-22T14:47:06;0;0;
59758;PMS5003;61150;62.516;17.862;2022-07-22T14:49:34;0;0;
59758;PMS5003;61150;62.516;17.862;2022-07-22T14:52:03;0;0;
59758;PMS5003;61150;62.516;17.862;2022-07-22T14:54:32;0;0;
59758;PMS5003;61150;62.516;17.862;2022-07-22T14:57:01;0;0;
59758;PMS5003;61150;62.516;17.862;2022-07-22T14:59:29;0;0;
59758;PMS5003;61150;62.516;17.862;2022-07-22T15:01:59;0;0;
59758;PMS5003;61150;62.516;17.862;2022-07-22T15:04:28;0;0;
59758;PMS5003;61150;62.516;17.862;2022-07-22T15:06:57;0;0;
59758;PMS5003;61150;62.516;17.862;2022-07-22T15:09:26;0;0;
59758;PMS5003;61150;62.516;17.862;2022-07-22T15:11:54;0;0;
59758;PMS5003;61150;62.516;17.862;2022-07-22T15:14:23;0;0;
59758;PMS5003;61150;62.516;17.862;2022-07-22T15:16:52;0;0;
59758;PMS5003;61150;62.516;17.862;2022-07-22T15:19:20;0;0;
59758;PMS5003;61150;62.516;17.862;2022-07-22T15:21:49;0;0;
59758;PMS5003;61150;62.516;17.862;2022-07-22T15:24:18;0;0;
59758;PMS5003;61150;62.516;17.862;2022-07-22T15:26:46;1;0;
59758;PMS5003;61150;62.516;17.862;2022-07-22T15:29:15;0;0;
59758;PMS5003;61150;62.516;17.862;2022-07-22T15:31:44;0;0;
59758;PMS5003;61150;62.516;17.862;2022-07-22T15:34:12;0;0;
59758;PMS5003;61150;62.516;17.862;2022-07-22T15:36:41;0;0;
59758;PMS5003;61150;62.516;17.862;2022-07-22T15:39:10;0;0;
59758;PMS5003;61150;62.516;17.862;2022-07-22T15:41:38;0;0;
59758;PMS5003;61150;62.516;17.862;2022-07-22T15:44:08;0;0;
59758;PMS5003;61150;62.516;17.862;2022-07-22T15:46:35;0;0;
59758;PMS5003;61150;62.516;17.862;2022-07-22T15:49:05;0;0;
59758;PMS5003;61150;62.516;17.862;2022-07-22T15:51:33;0;0;
59758;PMS5003;61150;62.516;17.862;2022-07-22T15:54:02;0;0;
59758;PMS5003;61150;62.516;17.862;2022-07-22T15:56:30;0;0;
59758;PMS5003;61150;62.516;17.862;2022-07-22T15:58:59;1;0;
59758;PMS5003;61150;62.516;17.862;2022-07-22T16:02:51;0;0;
59758;PMS5003;61150;62.516;17.862;2022-07-22T16:05:21;0;0;
59758;PMS5003;61150;62.516;17.862;2022-07-22T16:07:50;0;0;
59758;PMS5003;61150;62.516;17.862;2022-07-22T16:10:18;0;0;
59758;PMS5003;61150;62.516;17.862;2022-07-22T16:12:47;0;0;
59758;PMS5003;61150;62.516;17.862;2022-07-22T16:15:16;1;1;
59758;PMS5003;61150;62.516;17.862;2022-07-22T16:17:44;0;0;
59758;PMS5003;61150;62.516;17.862;2022-07-22T16:20:13;1;1;
59758;PMS5003;61150;62.516;17.862;2022-07-22T16:22:42;0;0;
59758;PMS5003;61150;62.516;17.862;2022-07-22T16:25:10;1;1;
59758;PMS5003;61150;62.516;17.862;2022-07-22T16:27:39;0;0;
59758;PMS5003;61150;62.516;17.862;2022-07-22T16:30:08;1;0;
59758;PMS5003;61150;62.516;17.862;2022-07-22T16:32:38;0;0;
59758;PMS5003;61150;62.516;17.862;2022-07-22T16:35:07;0;0;
59758;PMS5003;61150;62.516;17.862;2022-07-22T16:37:35;0;0;
59758;PMS5003;61150;62.516;17.862;2022-07-22T16:40:05;0;0;
59758;PMS5003;61150;62.516;17.862;2022-07-22T16:42:35;0;0;
59758;PMS5003;61150;62.516;17.862;2022-07-22T16:45:04;0;0;
59758;PMS5003;61150;62.516;17.862;2022-07-22T16:47:33;0;0;
59758;PMS5003;61150;62.516;17.862;2022-07-22T16:50:03;0;0;
59758;PMS5003;61150;62.516;17.862;2022-07-22T16:52:33;0;0;
59758;PMS5003;61150;62.516;17.862;2022-07-22T16:55:02;0;0;
59758;PMS5003;61150;62.516;17.862;2022-07-22T16:57:30;0;0;
59758;PMS5003;61150;62.516;17.862;2022-07-22T16:59:59;0;0;